Time;durP1;ratioP1;P1;durP2;ratioP2;P2;SDS_P1;SDS_P2;PMS_P1;PMS_P2;Temp;Humidity;BMP_temperature;BMP_pressure;BME280_temperature;BME280_humidity;BME280_pressure;Samples;Min_cycle;Max_cycle;Signal;HPM_P1;HPM_P2
2021/12/21 00:02:21;;;;;;;22.60;10.52;;;-1.50;98.70;;;;;;5015958;28;20209;-83
2021/12/21 00:04:49;;;;;;;21.17;9.77;;;-1.50;98.70;;;;;;5017402;28;20228;-82
2021/12/21 00:07:18;;;;;;;20.05;8.98;;;-1.50;98.90;;;;;;5017144;28;20205;-82
2021/12/21 00:09:46;;;;;;;18.83;9.25;;;-1.50;99.00;;;;;;5016674;28;20255;-81
2021/12/21 00:12:17;;;;;;;17.17;10.07;;;-1.50;99.00;;;;;;5016805;28;20268;-82
2021/12/21 00:14:56;;;;;;;25.48;12.23;;;-1.50;99.10;;;;;;5017527;28;20223;-84
2021/12/21 00:17:45;;;;;;;24.35;8.50;;;-1.50;99.40;;;;;;5018522;28;20198;-82
2021/12/21 00:20:25;;;;;;;22.83;9.07;;;-1.50;99.40;;;;;;5018307;28;20258;-84
2021/12/21 00:25:35;;;;;;;15.80;9.57;;;-1.50;99.40;;;;;;5018850;28;20190;-82
2021/12/21 00:28:06;;;;;;;21.45;9.20;;;-1.50;99.50;;;;;;5019019;28;20216;-85
2021/12/21 00:30:34;;;;;;;18.10;8.77;;;-1.60;99.50;;;;;;5017389;28;20245;-82
2021/12/21 00:33:24;;;;;;;20.27;9.73;;;-1.60;99.50;;;;;;5016224;28;20215;-81
2021/12/21 00:38:36;;;;;;;17.13;9.20;;;-1.60;99.50;;;;;;5050862;23;20227;-82
2021/12/21 00:41:08;;;;;;;16.15;8.70;;;-1.60;99.70;;;;;;5035964;28;20213;-83
2021/12/21 00:43:59;;;;;;;25.17;10.13;;;-1.60;99.70;;;;;;5028273;28;20551;-82
2021/12/21 00:46:27;;;;;;;16.25;9.05;;;-1.60;99.80;;;;;;5013817;28;20212;-82
2021/12/21 00:49:00;;;;;;;20.50;8.98;;;-1.70;99.80;;;;;;5014499;28;20240;-82
2021/12/21 00:51:29;;;;;;;17.95;10.43;;;-1.70;99.90;;;;;;5014307;28;20204;-82
2021/12/21 00:54:01;;;;;;;17.27;9.07;;;-1.70;99.90;;;;;;5005539;28;20212;-80
2021/12/21 00:56:28;;;;;;;20.23;10.15;;;-1.60;99.90;;;;;;5011144;28;20268;-81
2021/12/21 00:58:56;;;;;;;12.68;8.68;;;-1.60;99.90;;;;;;5010915;28;20327;-81
2021/12/21 01:01:23;;;;;;;16.50;10.15;;;-1.70;99.90;;;;;;5007267;28;20275;-82
2021/12/21 01:03:50;;;;;;;16.65;8.52;;;-1.70;99.90;;;;;;5007554;28;20279;-82
2021/12/21 01:06:23;;;;;;;12.70;8.88;;;-1.80;99.90;;;;;;5004768;28;20232;-80
2021/12/21 01:09:05;;;;;;;20.25;10.00;;;-1.80;99.90;;;;;;5001935;28;20228;-81
2021/12/21 01:11:38;;;;;;;32.88;10.90;;;-1.80;99.90;;;;;;5001768;28;20295;-80
2021/12/21 01:14:27;;;;;;;14.93;9.40;;;-1.80;99.90;;;;;;5003984;28;20213;-79
2021/12/21 01:17:04;;;;;;;16.25;9.75;;;-1.90;99.90;;;;;;5002417;28;20267;-81
2021/12/21 01:19:35;;;;;;;19.27;9.48;;;-1.90;99.90;;;;;;5001035;28;20252;-81
2021/12/21 01:22:10;;;;;;;19.13;10.05;;;-1.80;99.90;;;;;;5001826;28;20220;-80
2021/12/21 01:24:54;;;;;;;17.88;10.82;;;-1.90;99.90;;;;;;5002147;28;20231;-81
2021/12/21 01:27:31;;;;;;;17.05;8.10;;;-1.80;99.90;;;;;;5015734;28;20186;-80
2021/12/21 01:30:07;;;;;;;18.08;9.57;;;-1.80;99.90;;;;;;5012140;28;20225;-80
2021/12/21 01:32:53;;;;;;;18.23;9.45;;;-1.80;99.90;;;;;;5016770;28;20231;-80
2021/12/21 01:35:27;;;;;;;16.00;10.00;;;-1.80;99.90;;;;;;5010312;28;20236;-81
2021/12/21 01:37:59;;;;;;;20.40;9.35;;;-1.80;99.90;;;;;;4999770;28;20298;-81
2021/12/21 01:40:40;;;;;;;15.57;9.20;;;-1.90;99.90;;;;;;4999990;28;20275;-81
2021/12/21 01:43:17;;;;;;;16.85;9.55;;;-1.90;99.90;;;;;;5003130;28;20640;-80
2021/12/21 01:51:14;;;;;;;12.77;8.10;;;-1.90;99.90;;;;;;5008914;28;20252;-79
2021/12/21 01:53:42;;;;;;;18.40;9.85;;;-2.00;99.90;;;;;;5002555;28;20208;-80
2021/12/21 01:56:10;;;;;;;14.60;8.68;;;-2.00;99.90;;;;;;5000151;28;20205;-80
2021/12/21 01:58:39;;;;;;;21.02;10.18;;;-2.00;99.90;;;;;;5007415;28;20716;-79
2021/12/21 02:01:08;;;;;;;21.13;10.60;;;-2.00;99.90;;;;;;5000915;28;20205;-79
2021/12/21 02:03:35;;;;;;;17.80;10.52;;;-2.00;99.90;;;;;;5010228;28;20215;-80
2021/12/21 02:06:02;;;;;;;22.02;9.27;;;-2.00;99.90;;;;;;5008705;28;20209;-80
2021/12/21 02:08:30;;;;;;;16.85;9.18;;;-2.10;99.90;;;;;;5006634;28;20236;-79
2021/12/21 02:10:59;;;;;;;20.02;9.60;;;-2.10;99.90;;;;;;5002886;28;20208;-80
2021/12/21 02:13:31;;;;;;;15.43;9.77;;;-2.10;99.90;;;;;;5003695;28;20354;-78
2021/12/21 02:16:00;;;;;;;12.93;8.35;;;-2.10;99.90;;;;;;5006703;28;20217;-79
2021/12/21 02:21:17;;;;;;;25.25;10.20;;;-2.10;99.90;;;;;;5006632;28;20290;-80
2021/12/21 02:23:44;;;;;;;17.17;9.85;;;-2.10;99.90;;;;;;5007483;28;20262;-80
2021/12/21 02:29:13;;;;;;;20.00;10.07;;;-2.20;99.90;;;;;;5005602;28;20225;-80
2021/12/21 02:31:43;;;;;;;17.20;9.57;;;-2.10;99.90;;;;;;5013686;28;20221;-81
2021/12/21 02:34:10;;;;;;;21.00;10.10;;;-2.20;99.90;;;;;;5013518;28;20209;-81
2021/12/21 02:36:42;;;;;;;17.00;10.05;;;-2.10;99.90;;;;;;5015795;28;20224;-79
2021/12/21 02:39:10;;;;;;;18.13;9.52;;;-2.10;99.90;;;;;;5016474;28;20213;-79
2021/12/21 02:41:39;;;;;;;19.55;10.07;;;-2.20;99.90;;;;;;5015178;28;20236;-80
2021/12/21 02:44:06;;;;;;;18.73;10.18;;;-2.20;99.90;;;;;;5008808;28;20287;-80
2021/12/21 02:46:34;;;;;;;19.05;10.02;;;-2.20;99.90;;;;;;5009474;28;20214;-81
2021/12/21 02:49:11;;;;;;;18.15;9.82;;;-2.20;99.90;;;;;;5012635;28;20245;-80
2021/12/21 02:51:41;;;;;;;21.25;10.23;;;-2.20;99.90;;;;;;5015580;28;20275;-81
2021/12/21 02:54:09;;;;;;;16.77;9.85;;;-2.20;99.90;;;;;;5016478;28;20292;-80
2021/12/21 02:56:37;;;;;;;13.90;9.65;;;-2.10;99.90;;;;;;5016500;28;20190;-80
2021/12/21 02:59:04;;;;;;;16.02;9.68;;;-2.10;99.90;;;;;;5015856;28;20649;-80
2021/12/21 03:01:31;;;;;;;17.50;8.63;;;-2.20;99.90;;;;;;5009407;28;20235;-79
2021/12/21 03:03:58;;;;;;;23.30;10.20;;;-2.10;99.90;;;;;;4999023;28;20266;-80
2021/12/21 03:07:03;;;;;;;21.60;9.63;;;-2.10;99.90;;;;;;5004145;28;20235;-80
2021/12/21 03:09:39;;;;;;;18.30;9.93;;;-2.10;99.90;;;;;;5008306;28;20276;-80
2021/12/21 03:12:14;;;;;;;18.27;9.35;;;-2.10;99.90;;;;;;5004265;28;20212;-79
2021/12/21 03:14:42;;;;;;;16.42;9.50;;;-2.20;99.90;;;;;;5006125;28;20234;-81
2021/12/21 03:17:10;;;;;;;18.15;9.55;;;-2.10;99.90;;;;;;5007797;28;20208;-80
2021/12/21 03:19:37;;;;;;;15.75;8.70;;;-2.10;99.90;;;;;;5006510;28;20220;-79
2021/12/21 03:22:05;;;;;;;14.45;8.75;;;-2.10;99.90;;;;;;5005245;28;20233;-79
2021/12/21 03:24:34;;;;;;;20.50;9.00;;;-2.20;99.90;;;;;;5001594;28;20205;-78
2021/12/21 03:27:01;;;;;;;14.77;9.63;;;-2.20;99.90;;;;;;5001520;28;20216;-79
2021/12/21 03:29:29;;;;;;;14.48;9.63;;;-2.20;99.90;;;;;;5002757;28;20231;-79
2021/12/21 03:31:56;;;;;;;13.93;9.40;;;-2.20;99.90;;;;;;5002679;28;20284;-79
2021/12/21 03:34:23;;;;;;;16.25;8.90;;;-2.20;99.90;;;;;;5003754;28;20209;-78
2021/12/21 03:36:50;;;;;;;17.13;9.05;;;-2.20;99.90;;;;;;5007235;28;20286;-79
2021/12/21 03:39:18;;;;;;;16.92;7.72;;;-2.30;99.90;;;;;;5005682;28;20268;-79
2021/12/21 03:41:49;;;;;;;18.75;9.13;;;-2.30;99.90;;;;;;5003179;28;20264;-80
2021/12/21 03:44:17;;;;;;;23.65;7.82;;;-2.30;99.90;;;;;;5004447;28;20204;-80
2021/12/21 03:46:48;;;;;;;16.30;8.80;;;-2.30;99.90;;;;;;5017261;28;20217;-79
2021/12/21 03:52:15;;;;;;;17.27;8.60;;;-2.30;99.90;;;;;;4966071;29;20205;-80
2021/12/21 03:54:49;;;;;;;16.73;9.95;;;-2.30;99.90;;;;;;5007418;28;20209;-79
2021/12/21 03:57:17;;;;;;;18.55;8.55;;;-2.30;99.90;;;;;;5004159;28;20239;-80
2021/12/21 03:59:45;;;;;;;15.13;8.57;;;-2.30;99.90;;;;;;5002366;28;20227;-81
2021/12/21 04:02:14;;;;;;;17.42;8.50;;;-2.30;99.90;;;;;;5001240;28;20228;-79
2021/12/21 04:04:42;;;;;;;13.07;8.38;;;-2.30;99.90;;;;;;5001597;28;20208;-80
2021/12/21 04:07:10;;;;;;;23.98;9.90;;;-2.40;99.90;;;;;;5002870;28;20240;-81
2021/12/21 04:09:37;;;;;;;16.10;7.80;;;-2.40;99.90;;;;;;5006892;28;20319;-80
2021/12/21 04:12:05;;;;;;;20.48;8.07;;;-2.50;99.90;;;;;;5001507;28;20212;-80
2021/12/21 04:14:34;;;;;;;17.38;9.07;;;-2.50;99.90;;;;;;5002420;28;20291;-79
2021/12/21 04:17:02;;;;;;;16.02;8.02;;;-2.50;99.90;;;;;;4998754;28;20216;-80
2021/12/21 04:19:29;;;;;;;12.68;9.02;;;-2.50;99.90;;;;;;4998885;28;20225;-78
2021/12/21 04:21:56;;;;;;;15.23;8.52;;;-2.60;99.90;;;;;;5002211;28;20320;-79
2021/12/21 04:24:23;;;;;;;17.45;9.38;;;-2.50;99.90;;;;;;5002249;28;20240;-79
2021/12/21 04:26:50;;;;;;;12.55;8.65;;;-2.50;99.90;;;;;;5011798;28;20244;-79
2021/12/21 04:29:17;;;;;;;14.48;8.63;;;-2.50;99.90;;;;;;5030734;28;20228;-79
2021/12/21 04:31:46;;;;;;;18.70;9.43;;;-2.50;99.90;;;;;;5035984;28;20219;-80
2021/12/21 04:34:13;;;;;;;22.73;10.27;;;-2.50;99.90;;;;;;5037033;28;20215;-82
2021/12/21 04:36:44;;;;;;;26.23;9.93;;;-2.50;99.90;;;;;;5036625;28;20241;-80
2021/12/21 04:39:22;;;;;;;15.32;8.15;;;-2.50;99.90;;;;;;5035540;28;20227;-81
2021/12/21 04:41:49;;;;;;;12.75;8.68;;;-2.50;99.90;;;;;;5022345;28;20275;-79
2021/12/21 04:44:16;;;;;;;16.27;8.55;;;-2.50;99.90;;;;;;5035723;28;20207;-80
2021/12/21 04:46:43;;;;;;;17.58;9.77;;;-2.50;99.90;;;;;;5030647;28;20645;-81
2021/12/21 04:49:11;;;;;;;15.98;8.50;;;-2.40;99.90;;;;;;5028691;28;20236;-81
2021/12/21 04:51:39;;;;;;;18.80;9.20;;;-2.50;99.90;;;;;;5037273;28;20234;-81
2021/12/21 04:54:05;;;;;;;16.80;9.30;;;-2.50;99.90;;;;;;5036818;28;20192;-81
2021/12/21 04:56:32;;;;;;;14.90;9.15;;;-2.50;99.90;;;;;;5021824;28;20200;-81
2021/12/21 04:58:59;;;;;;;16.60;9.45;;;-2.50;99.90;;;;;;5012707;28;20233;-81
2021/12/21 05:01:26;;;;;;;15.43;8.48;;;-2.50;99.90;;;;;;5023384;28;20640;-82
2021/12/21 05:03:54;;;;;;;18.55;10.13;;;-2.50;99.90;;;;;;5025943;28;20208;-81
2021/12/21 05:06:22;;;;;;;15.45;9.45;;;-2.50;99.90;;;;;;5033497;28;20204;-81
2021/12/21 05:09:03;;;;;;;16.98;10.27;;;-2.50;99.90;;;;;;5006883;28;20220;-81
2021/12/21 05:11:34;;;;;;;14.15;9.43;;;-2.60;99.90;;;;;;5003707;28;20203;-82
2021/12/21 05:14:01;;;;;;;16.40;9.63;;;-2.60;99.90;;;;;;5011374;28;20264;-82
2021/12/21 05:16:28;;;;;;;20.13;8.82;;;-2.60;99.90;;;;;;5010102;28;20212;-81
2021/12/21 05:18:55;;;;;;;17.50;9.38;;;-2.60;99.90;;;;;;5008918;28;20367;-81
2021/12/21 05:21:24;;;;;;;14.88;8.07;;;-2.60;99.90;;;;;;5006993;28;20235;-82
2021/12/21 05:23:51;;;;;;;16.50;8.60;;;-2.50;99.90;;;;;;5022989;28;20646;-82
2021/12/21 05:26:18;;;;;;;18.85;9.65;;;-2.60;99.90;;;;;;5025403;28;20218;-81
2021/12/21 05:28:45;;;;;;;23.17;10.90;;;-2.60;99.90;;;;;;5009312;28;20225;-81
2021/12/21 05:31:12;;;;;;;12.18;8.70;;;-2.50;99.90;;;;;;5003397;28;20240;-80
2021/12/21 05:33:39;;;;;;;17.67;9.80;;;-2.60;99.90;;;;;;5002480;28;20228;-81
2021/12/21 05:36:06;;;;;;;16.83;9.05;;;-2.60;99.90;;;;;;5016753;28;20287;-81
2021/12/21 05:38:35;;;;;;;20.73;8.13;;;-2.60;99.90;;;;;;5021841;28;20232;-82
2021/12/21 05:41:06;;;;;;;17.17;9.63;;;-2.60;99.90;;;;;;5026303;28;20232;-82
2021/12/21 05:43:33;;;;;;;21.00;9.10;;;-2.50;99.90;;;;;;5021041;28;20192;-82
2021/12/21 05:46:00;;;;;;;12.10;8.60;;;-2.50;99.90;;;;;;5020637;28;20200;-82
2021/12/21 05:48:27;;;;;;;13.18;9.52;;;-2.50;99.90;;;;;;5021092;28;20240;-80
2021/12/21 05:50:54;;;;;;;11.88;7.63;;;-2.50;99.90;;;;;;5033869;28;20227;-80
2021/12/21 05:53:22;;;;;;;19.83;9.15;;;-2.50;99.90;;;;;;5022750;28;20286;-80
2021/12/21 05:56:12;;;;;;;13.15;8.90;;;-2.50;99.90;;;;;;5023321;28;20626;-82
2021/12/21 05:58:39;;;;;;;17.92;10.50;;;-2.50;99.90;;;;;;5024195;28;20235;-82
2021/12/21 06:01:06;;;;;;;14.25;8.73;;;-2.60;99.90;;;;;;5025433;28;20227;-83
2021/12/21 06:03:33;;;;;;;13.35;9.20;;;-2.50;99.90;;;;;;5022527;28;20223;-80
2021/12/21 06:06:00;;;;;;;15.07;9.40;;;-2.50;99.90;;;;;;5021483;28;20216;-81
2021/12/21 06:08:27;;;;;;;17.38;7.38;;;-2.60;99.90;;;;;;5030023;28;20215;-84
2021/12/21 06:10:56;;;;;;;14.70;9.50;;;-2.50;99.90;;;;;;5036348;28;20210;-84
2021/12/21 06:13:49;;;;;;;19.55;8.70;;;-2.50;99.90;;;;;;5029586;28;20218;-81
2021/12/21 06:27:18;;;;;;;16.63;8.30;;;-2.50;99.90;;;;;;5029109;28;20215;-81
2021/12/21 06:29:47;;;;;;;15.30;8.45;;;-2.50;99.90;;;;;;5034126;28;20751;-82
2021/12/21 06:32:15;;;;;;;13.95;9.10;;;-2.50;99.90;;;;;;5032508;28;20216;-82
2021/12/21 06:34:42;;;;;;;20.40;8.57;;;-2.50;99.90;;;;;;5031913;28;20272;-83
2021/12/21 06:37:11;;;;;;;15.93;8.45;;;-2.50;99.90;;;;;;5030968;28;20216;-82
2021/12/21 06:39:38;;;;;;;20.67;9.20;;;-2.50;99.90;;;;;;5031552;28;20362;-82
2021/12/21 06:42:06;;;;;;;19.92;9.88;;;-2.40;99.90;;;;;;5023440;28;20228;-83
2021/12/21 06:44:34;;;;;;;22.20;9.60;;;-2.40;99.90;;;;;;5021397;28;20207;-82
2021/12/21 06:51:08;;;;;;;14.00;7.55;;;-2.40;99.90;;;;;;5021038;28;20208;-82
2021/12/21 06:52:52;;;;;;;21.95;9.68;;;-2.50;99.90;;;;;;5025662;28;20254;-81
2021/12/21 06:55:35;;;;;;;18.00;9.43;;;-2.40;99.90;;;;;;5022426;28;20659;-79
2021/12/21 06:58:17;;;;;;;21.90;8.73;;;-2.40;99.90;;;;;;5020882;28;20236;-80
2021/12/21 07:01:37;;;;;;;17.60;8.85;;;-2.40;99.90;;;;;;5018494;28;20224;-81
2021/12/21 07:04:35;;;;;;;;;;;;;;;;;;;;;
2021/12/21 07:07:18;;;;;;;15.65;8.32;;;-2.40;99.90;;;;;;4921158;29;20242;-80
2021/12/21 07:18:49;;;;;;;18.15;9.45;;;-2.40;99.80;;;;;;4954506;29;20295;-81
2021/12/21 07:21:24;;;;;;;13.45;7.72;;;-2.40;99.60;;;;;;4951610;29;20235;-80
2021/12/21 07:23:51;;;;;;;16.50;10.15;;;-2.40;99.60;;;;;;4947857;29;20251;-82
2021/12/21 07:26:22;;;;;;;16.50;10.45;;;-2.50;99.50;;;;;;4942193;29;20277;-82
2021/12/21 07:28:52;;;;;;;17.40;9.85;;;-2.50;99.60;;;;;;4942509;29;20213;-80
2021/12/21 07:31:27;;;;;;;20.42;10.70;;;-2.50;99.60;;;;;;4944649;29;20262;-79
2021/12/21 07:34:14;;;;;;;18.75;10.23;;;-2.50;99.70;;;;;;4955073;29;20218;-80
2021/12/21 07:36:45;;;;;;;21.38;10.35;;;-2.40;99.70;;;;;;4953827;29;20210;-80
2021/12/21 07:39:54;;;;;;;15.57;9.68;;;-2.40;99.40;;;;;;4976067;28;20212;-82
2021/12/21 07:42:27;;;;;;;15.70;9.52;;;-2.40;99.20;;;;;;5004104;28;20225;-79
2021/12/21 07:44:57;;;;;;;18.85;11.07;;;-2.40;99.20;;;;;;5004101;28;20215;-81
2021/12/21 07:47:27;;;;;;;16.63;10.82;;;-2.50;98.90;;;;;;5003107;28;20221;-81
2021/12/21 07:49:57;;;;;;;16.23;10.55;;;-2.50;98.80;;;;;;5008973;28;20217;-80
2021/12/21 07:52:48;;;;;;;14.48;8.90;;;-2.50;98.80;;;;;;5013900;28;20231;-79
2021/12/21 07:55:24;;;;;;;18.27;9.77;;;-2.50;98.90;;;;;;5010091;28;20213;-80
2021/12/21 07:57:56;;;;;;;18.02;8.95;;;-2.50;98.80;;;;;;5015338;28;20213;-80
2021/12/21 08:00:24;;;;;;;22.35;10.32;;;-2.40;98.90;;;;;;5017129;28;20228;-80
2021/12/21 08:02:53;;;;;;;24.90;11.07;;;-2.40;98.80;;;;;;5017560;28;20227;-80
2021/12/21 08:05:26;;;;;;;14.30;9.85;;;-2.40;98.60;;;;;;5014449;28;20275;-80
2021/12/21 08:08:04;;;;;;;19.10;11.07;;;-2.40;98.60;;;;;;5018708;28;20202;-79
2021/12/21 08:10:42;;;;;;;14.23;10.60;;;-2.40;98.40;;;;;;5019575;28;20228;-78
2021/12/21 08:13:13;;;;;;;21.00;11.15;;;-2.30;98.30;;;;;;5011817;28;20276;-82
2021/12/21 08:15:40;;;;;;;19.83;9.82;;;-2.30;98.10;;;;;;5019670;28;20219;-80
2021/12/21 08:18:08;;;;;;;18.70;10.98;;;-2.30;98.00;;;;;;5019203;28;20503;-80
2021/12/21 08:20:36;;;;;;;23.33;11.60;;;-2.20;98.10;;;;;;5007532;28;20232;-81
2021/12/21 08:23:05;;;;;;;20.38;10.05;;;-2.20;97.90;;;;;;5008887;28;20363;-81
2021/12/21 08:25:33;;;;;;;21.85;11.15;;;-2.20;97.70;;;;;;5006862;28;20216;-81
2021/12/21 08:28:01;;;;;;;17.73;10.90;;;-2.10;97.60;;;;;;5007960;28;20236;-81
2021/12/21 08:30:29;;;;;;;21.42;10.98;;;-2.10;97.10;;;;;;5008762;28;20229;-81
2021/12/21 08:32:58;;;;;;;17.75;10.82;;;-2.10;96.90;;;;;;5008090;28;20277;-80
2021/12/21 08:35:27;;;;;;;22.85;11.00;;;-2.00;96.60;;;;;;5008217;28;20212;-81
2021/12/21 08:38:02;;;;;;;18.50;9.75;;;-2.00;96.20;;;;;;5010067;28;20194;-81
2021/12/21 08:40:38;;;;;;;20.98;10.23;;;-1.90;96.00;;;;;;5009378;28;20242;-80
2021/12/21 08:43:05;;;;;;;16.67;10.40;;;-1.80;96.00;;;;;;5010959;28;20233;-81
2021/12/21 08:45:33;;;;;;;14.02;9.48;;;-1.80;95.90;;;;;;5016960;28;20193;-79
2021/12/21 08:48:00;;;;;;;15.90;10.85;;;-1.80;95.30;;;;;;5015783;28;20237;-79
2021/12/21 08:50:28;;;;;;;17.25;10.13;;;-1.70;95.00;;;;;;5014007;28;20234;-80
2021/12/21 08:52:56;;;;;;;18.67;8.48;;;-1.60;95.00;;;;;;5015672;28;20209;-81
2021/12/21 08:55:29;;;;;;;15.90;10.45;;;-1.50;94.70;;;;;;5015861;28;20210;-80
2021/12/21 08:57:58;;;;;;;14.82;9.93;;;-1.50;94.30;;;;;;5012465;28;20206;-80
2021/12/21 09:00:34;;;;;;;17.83;10.85;;;-1.50;93.80;;;;;;5010979;28;20233;-77
2021/12/21 09:03:01;;;;;;;13.50;8.75;;;-1.40;93.50;;;;;;5012588;28;20214;-78
2021/12/21 09:05:30;;;;;;;16.65;10.70;;;-1.30;92.80;;;;;;5012314;28;20209;-78
2021/12/21 09:08:01;;;;;;;24.67;9.43;;;-1.30;92.70;;;;;;5012304;28;20238;-80
2021/12/21 09:10:30;;;;;;;16.38;7.75;;;-1.20;92.20;;;;;;5010711;28;20245;-78
2021/12/21 09:13:14;;;;;;;16.45;8.60;;;-1.20;91.30;;;;;;5006145;28;20278;-80
2021/12/21 09:15:41;;;;;;;14.10;8.38;;;-1.10;91.00;;;;;;5004547;28;20229;-79
2021/12/21 09:18:08;;;;;;;14.95;9.80;;;-1.10;90.70;;;;;;5005159;28;20209;-78
2021/12/21 09:20:40;;;;;;;14.45;9.88;;;-1.00;90.50;;;;;;5009546;28;20262;-79
2021/12/21 09:23:07;;;;;;;19.98;9.57;;;-1.00;90.40;;;;;;5011977;28;20218;-81
2021/12/21 09:25:34;;;;;;;13.25;8.90;;;-0.90;89.60;;;;;;5019445;28;20190;-79
2021/12/21 09:28:01;;;;;;;24.52;10.05;;;-0.90;88.70;;;;;;5018876;28;20178;-83
2021/12/21 09:30:30;;;;;;;13.90;8.07;;;-0.90;88.70;;;;;;5016979;28;20227;-78
2021/12/21 09:32:57;;;;;;;15.23;9.15;;;-0.90;88.70;;;;;;5003455;28;20298;-79
2021/12/21 09:35:25;;;;;;;28.25;10.30;;;-0.80;88.70;;;;;;5000511;28;20250;-78
2021/12/21 09:37:52;;;;;;;15.40;8.43;;;-0.80;88.70;;;;;;5001735;28;20222;-78
2021/12/21 09:40:22;;;;;;;14.63;9.32;;;-0.70;88.80;;;;;;5004239;28;20251;-79
2021/12/21 09:42:52;;;;;;;13.77;8.70;;;-0.70;88.80;;;;;;5008274;28;20249;-79
2021/12/21 09:45:24;;;;;;;11.77;9.05;;;-0.60;87.60;;;;;;5011642;28;20562;-79
2021/12/21 09:47:53;;;;;;;17.23;10.02;;;-0.60;87.10;;;;;;5011158;28;20272;-79
2021/12/21 09:50:29;;;;;;;13.35;9.00;;;-0.50;86.50;;;;;;5010460;28;20267;-78
2021/12/21 09:53:11;;;;;;;13.40;9.10;;;-0.50;85.30;;;;;;5011231;28;20203;-79
2021/12/21 09:55:38;;;;;;;18.80;9.68;;;-0.40;85.10;;;;;;5013312;28;20211;-80
2021/12/21 09:58:05;;;;;;;12.20;9.13;;;-0.40;84.90;;;;;;5013276;28;20246;-79
2021/12/21 10:00:35;;;;;;;13.73;8.82;;;-0.40;83.90;;;;;;5013622;28;20223;-79
2021/12/21 10:03:05;;;;;;;14.23;8.98;;;-0.30;83.90;;;;;;5013429;28;20224;-81
2021/12/21 10:05:34;;;;;;;11.13;7.65;;;-0.30;83.10;;;;;;5015290;28;20221;-79
2021/12/21 10:08:04;;;;;;;18.38;10.45;;;-0.20;83.30;;;;;;5014839;28;20214;-81
2021/12/21 10:10:37;;;;;;;14.25;8.65;;;-0.10;81.20;;;;;;5013250;28;20258;-80
2021/12/21 10:13:09;;;;;;;14.75;8.35;;;0.00;80.40;;;;;;5014951;28;20231;-78
2021/12/21 10:15:40;;;;;;;15.85;8.05;;;0.10;77.50;;;;;;5012360;28;20204;-80
2021/12/21 10:18:10;;;;;;;9.98;7.43;;;0.10;77.30;;;;;;5004409;28;20208;-79
2021/12/21 10:20:39;;;;;;;18.85;8.23;;;0.10;75.50;;;;;;5010163;28;20278;-77
2021/12/21 10:23:12;;;;;;;14.60;8.30;;;0.20;75.20;;;;;;5009886;28;20235;-81
2021/12/21 10:25:46;;;;;;;16.45;7.28;;;0.30;74.60;;;;;;5005991;28;20276;-80
2021/12/21 10:28:24;;;;;;;10.85;7.35;;;0.30;72.90;;;;;;5006306;28;20274;-79
2021/12/21 10:30:54;;;;;;;9.85;7.18;;;0.30;73.70;;;;;;5012708;28;20258;-81
2021/12/21 10:33:25;;;;;;;15.07;7.10;;;0.40;73.30;;;;;;5011515;28;20217;-79
2021/12/21 10:35:54;;;;;;;10.15;6.47;;;0.50;72.80;;;;;;5017198;28;20201;-79
2021/12/21 10:38:29;;;;;;;7.38;5.93;;;0.50;72.70;;;;;;5017908;28;20192;-78
2021/12/21 10:40:59;;;;;;;8.20;5.97;;;0.60;71.20;;;;;;5017748;28;20216;-78
2021/12/21 10:43:29;;;;;;;11.70;6.90;;;0.60;69.30;;;;;;5017467;28;20246;-81
2021/12/21 10:45:56;;;;;;;10.55;6.55;;;0.70;69.40;;;;;;5016797;28;20222;-79
2021/12/21 10:48:26;;;;;;;9.55;6.63;;;0.70;69.40;;;;;;5011355;28;20212;-81
2021/12/21 10:50:53;;;;;;;13.13;7.13;;;0.70;69.40;;;;;;5001611;28;20256;-80
2021/12/21 10:53:21;;;;;;;10.90;6.75;;;0.80;69.50;;;;;;5001065;28;20217;-81
2021/12/21 10:56:00;;;;;;;12.23;6.68;;;0.80;67.80;;;;;;5011304;28;20209;-77
2021/12/21 10:58:29;;;;;;;8.52;6.50;;;0.90;67.00;;;;;;5017843;28;20222;-77
2021/12/21 11:00:59;;;;;;;12.13;6.43;;;0.90;66.90;;;;;;5017495;28;20448;-78
2021/12/21 11:03:40;;;;;;;12.63;6.68;;;1.00;67.00;;;;;;5016411;28;20227;-79
2021/12/21 11:06:15;;;;;;;9.93;7.05;;;1.00;66.70;;;;;;5017570;28;20181;-77
2021/12/21 11:08:44;;;;;;;9.23;6.22;;;1.10;66.40;;;;;;5012189;28;20306;-81
2021/12/21 11:11:22;;;;;;;9.60;6.35;;;1.20;65.40;;;;;;5002033;28;20232;-80
2021/12/21 11:14:00;;;;;;;9.88;6.07;;;1.20;65.30;;;;;;5004708;28;20215;-80
2021/12/21 11:16:36;;;;;;;9.57;6.90;;;1.30;65.30;;;;;;4998104;28;20218;-81
2021/12/21 11:19:05;;;;;;;14.82;6.50;;;1.30;65.20;;;;;;5001994;28;20212;-80
2021/12/21 11:21:34;;;;;;;8.48;6.10;;;1.40;64.00;;;;;;5003214;28;20236;-80
2021/12/21 11:24:03;;;;;;;9.00;6.18;;;1.40;63.70;;;;;;5009298;28;20239;-79
2021/12/21 11:29:15;;;;;;;6.30;5.20;;;1.50;63.10;;;;;;5004202;28;20240;-79
2021/12/21 11:31:44;;;;;;;7.53;6.07;;;1.50;63.20;;;;;;5016156;28;20290;-80
2021/12/21 11:34:19;;;;;;;9.13;6.50;;;1.50;63.10;;;;;;5014902;28;20589;-80
2021/12/21 11:39:33;;;;;;;8.98;6.00;;;1.60;63.20;;;;;;5001172;28;20190;-79
2021/12/21 11:42:01;;;;;;;9.63;5.88;;;1.60;61.40;;;;;;5000548;28;20239;-81
2021/12/21 11:44:38;;;;;;;13.57;6.70;;;1.60;61.40;;;;;;5001285;28;20311;-82
2021/12/21 11:47:09;;;;;;;7.88;6.10;;;1.70;61.50;;;;;;5003028;28;20212;-80
2021/12/21 11:49:46;;;;;;;9.15;6.07;;;1.70;61.50;;;;;;5003153;28;20226;-81
2021/12/21 11:52:16;;;;;;;10.88;6.22;;;1.80;61.60;;;;;;5002899;28;20239;-80
2021/12/21 11:54:45;;;;;;;5.78;5.18;;;1.80;61.60;;;;;;5002470;28;20209;-80
2021/12/21 11:57:12;;;;;;;8.13;5.60;;;1.80;61.60;;;;;;5011817;28;20213;-79
2021/12/21 11:59:39;;;;;;;7.38;5.75;;;1.80;61.20;;;;;;5004769;28;20295;-79
2021/12/21 12:02:07;;;;;;;5.57;5.03;;;1.90;61.00;;;;;;5003437;28;20228;-81
2021/12/21 12:04:35;;;;;;;8.65;5.60;;;1.90;60.50;;;;;;5002820;28;20231;-80
2021/12/21 12:07:17;;;;;;;10.52;6.20;;;2.00;60.90;;;;;;5004775;28;20219;-79
2021/12/21 12:09:45;;;;;;;10.35;5.72;;;2.00;60.20;;;;;;5004278;28;20208;-80
2021/12/21 12:12:14;;;;;;;7.57;5.25;;;2.00;60.20;;;;;;5004118;28;20215;-81
2021/12/21 12:14:42;;;;;;;8.45;5.30;;;2.00;59.90;;;;;;5008110;28;20232;-80
2021/12/21 12:17:15;;;;;;;11.38;6.75;;;2.10;59.90;;;;;;5013442;28;20232;-78
2021/12/21 12:19:43;;;;;;;9.93;5.63;;;2.10;59.50;;;;;;5014576;28;20213;-80
2021/12/21 12:22:15;;;;;;;8.85;6.13;;;2.10;59.30;;;;;;5004796;28;20339;-80
2021/12/21 12:24:44;;;;;;;6.45;5.43;;;2.10;58.90;;;;;;5003685;28;20244;-80
2021/12/21 12:27:16;;;;;;;6.88;5.60;;;2.10;58.80;;;;;;5002128;28;20220;-80
2021/12/21 12:29:46;;;;;;;8.05;5.38;;;2.20;59.10;;;;;;5001883;28;20560;-79
2021/12/21 12:32:14;;;;;;;7.00;4.85;;;2.20;59.00;;;;;;5004380;28;20296;-83
2021/12/21 12:34:42;;;;;;;8.05;6.13;;;2.30;59.00;;;;;;5009307;28;20284;-81
2021/12/21 12:37:21;;;;;;;6.15;5.25;;;2.30;59.00;;;;;;5005091;28;20208;-81
2021/12/21 12:39:50;;;;;;;8.82;5.40;;;2.40;58.50;;;;;;5003645;28;20248;-81
2021/12/21 12:42:21;;;;;;;11.00;6.05;;;2.40;58.10;;;;;;5011155;28;20215;-80
2021/12/21 12:44:51;;;;;;;7.35;5.25;;;2.40;57.70;;;;;;5009967;28;20696;-81
2021/12/21 12:47:18;;;;;;;6.50;5.28;;;2.30;58.30;;;;;;5003422;28;20208;-81
2021/12/21 12:49:51;;;;;;;8.95;5.32;;;2.40;57.70;;;;;;5004960;28;20299;-84
2021/12/21 12:52:24;;;;;;;8.55;5.30;;;2.50;57.50;;;;;;5004764;28;20258;-78
2021/12/21 12:54:53;;;;;;;6.72;5.43;;;2.50;57.20;;;;;;5004031;28;20224;-79
2021/12/21 12:57:32;;;;;;;10.50;5.50;;;2.60;57.00;;;;;;5003748;28;20244;-79
2021/12/21 13:00:10;;;;;;;6.68;5.10;;;2.60;56.80;;;;;;5004148;28;20193;-79
2021/12/21 13:02:37;;;;;;;7.22;4.80;;;2.60;56.80;;;;;;5005251;28;20526;-78
2021/12/21 13:05:09;;;;;;;7.07;4.75;;;2.60;56.80;;;;;;5002304;28;20260;-77
2021/12/21 13:07:37;;;;;;;13.57;5.85;;;2.60;55.80;;;;;;5002013;28;20239;-79
2021/12/21 13:10:08;;;;;;;5.47;4.60;;;2.70;55.80;;;;;;5000329;28;20220;-78
2021/12/21 13:12:35;;;;;;;9.23;4.80;;;2.60;55.40;;;;;;5000495;28;20212;-77
2021/12/21 13:15:02;;;;;;;12.85;4.80;;;2.60;55.40;;;;;;5001441;28;20209;-78
2021/12/21 13:17:29;;;;;;;7.20;4.97;;;2.60;55.00;;;;;;5001164;28;20303;-78
2021/12/21 13:19:56;;;;;;;7.03;5.20;;;2.60;54.80;;;;;;5001158;28;20216;-78
2021/12/21 13:22:24;;;;;;;10.32;5.88;;;2.60;54.90;;;;;;4998870;28;20208;-77
2021/12/21 13:24:53;;;;;;;5.55;4.95;;;2.70;55.20;;;;;;5003621;28;20236;-78
2021/12/21 13:27:23;;;;;;;5.00;4.35;;;2.70;55.30;;;;;;5000951;28;20216;-78
2021/12/21 13:29:52;;;;;;;5.65;4.35;;;2.70;54.40;;;;;;5005891;28;20208;-78
2021/12/21 13:32:22;;;;;;;8.88;5.45;;;2.70;55.10;;;;;;5006079;28;20212;-77
2021/12/21 13:34:56;;;;;;;8.32;5.00;;;2.70;53.60;;;;;;5006431;28;20755;-77
2021/12/21 13:37:27;;;;;;;7.50;4.55;;;2.70;54.10;;;;;;5003132;28;20577;-77
2021/12/21 13:39:57;;;;;;;5.47;4.22;;;2.70;54.20;;;;;;4996854;28;20222;-78
2021/12/21 13:42:27;;;;;;;7.55;4.82;;;2.70;54.60;;;;;;4996194;28;20745;-78
2021/12/21 13:44:56;;;;;;;5.45;4.95;;;2.70;53.90;;;;;;4996288;28;20323;-78
2021/12/21 13:47:25;;;;;;;6.20;4.40;;;2.80;54.10;;;;;;4998740;28;20204;-77
2021/12/21 13:50:03;;;;;;;7.90;4.75;;;2.80;53.40;;;;;;4996086;28;20584;-76